Hughes River, West Virginia
Current Conditions -  °F | °C
As of 2:53 AM on Monday 24 Nov 2014 (Local Time) from KPKB Reporting Station
Overcast Overcast  
Wind Chill: 64°   Ceiling: 3800
Heat Index: 64°   Visibility: 10mi
Dew Point: 50°   Wind: 16mph
Humidity: 60%   Direction: 200°SSW
Pressure: 29.43"   Gusts: 46mph
Location:  39.0402°N, 81.3085°W
Report Text: KPKB 240753Z AUTO 20014G40KT 10SM OVC038 18/10 A2943 RMK AO2 PK WND 19040/0744 SLP962 T01780100
Loading
Personal Weather Stations






























Interactive Weather Map New forecast layout! Learn more

10-Day Weather Forecast

Advertisements
Track Severe Weather on mobile